createdAt,value
2018-10-12T00:00:54.643Z,19.20
2018-10-12T00:03:24.224Z,18.90
2018-10-12T00:05:53.384Z,18.50
2018-10-12T00:08:22.664Z,18.50
2018-10-12T00:10:52.164Z,18.50
2018-10-12T00:13:21.384Z,18.30
2018-10-12T00:15:51.104Z,18.20
2018-10-12T00:18:20.377Z,18.10
2018-10-12T00:20:49.604Z,17.80
2018-10-12T00:23:19.184Z,17.90
2018-10-12T00:25:48.465Z,17.70
2018-10-12T00:28:17.769Z,17.60
2018-10-12T00:30:53.509Z,17.40
2018-10-12T00:33:22.727Z,17.50
2018-10-12T00:36:22.864Z,17.40
2018-10-12T00:38:52.084Z,17.30
2018-10-12T00:41:28.244Z,17.20
2018-10-12T00:43:57.633Z,17.10
2018-10-12T00:46:26.886Z,17.00
2018-10-12T00:48:56.064Z,17.00
2018-10-12T00:51:25.305Z,16.80
2018-10-12T00:53:54.564Z,17.00
2018-10-12T00:56:23.824Z,17.00
2018-10-12T00:58:53.085Z,17.00
2018-10-12T01:01:22.243Z,17.00
2018-10-12T01:03:51.464Z,16.90
2018-10-12T01:06:23.744Z,16.90
2018-10-12T01:08:52.944Z,16.90
2018-10-12T01:11:22.184Z,16.80
2018-10-12T01:13:51.759Z,16.70
2018-10-12T01:16:20.988Z,16.60
2018-10-12T01:18:50.264Z,16.50
2018-10-12T01:21:19.684Z,16.40
2018-10-12T01:23:49.104Z,16.30
2018-10-12T01:26:18.684Z,16.30
2018-10-12T01:28:49.964Z,16.20
2018-10-12T01:31:19.444Z,16.20
2018-10-12T01:33:48.824Z,16.20
2018-10-12T01:36:18.144Z,16.10
2018-10-12T01:38:47.290Z,16.10
2018-10-12T01:41:16.474Z,16.00
2018-10-12T01:43:46.008Z,15.90
2018-10-12T01:46:15.364Z,15.90
2018-10-12T01:48:44.866Z,15.90
2018-10-12T01:51:14.145Z,15.90
2018-10-12T01:53:43.363Z,15.80
2018-10-12T01:56:12.606Z,15.80
2018-10-12T01:58:42.064Z,15.70
2018-10-12T02:01:11.364Z,15.70
2018-10-12T02:03:40.624Z,15.60
2018-10-12T02:06:09.884Z,15.40
2018-10-12T02:08:39.104Z,15.20
2018-10-12T02:11:08.291Z,15.20
2018-10-12T02:13:37.724Z,15.00
2018-10-12T02:16:07.024Z,15.00
2018-10-12T02:18:36.224Z,14.90
2018-10-12T02:21:05.544Z,14.80
2018-10-12T02:23:34.738Z,14.80
2018-10-12T02:26:04.031Z,14.80
2018-10-12T02:28:33.284Z,14.70
2018-10-12T02:31:02.445Z,14.50
2018-10-12T02:33:31.764Z,14.50
2018-10-12T02:36:01.001Z,14.40
2018-10-12T02:38:30.218Z,14.40
2018-10-12T02:40:59.471Z,14.30
2018-10-12T02:43:29.065Z,14.20
2018-10-12T02:45:58.345Z,14.10
2018-10-12T02:48:27.525Z,14.00
2018-10-12T02:50:56.744Z,14.10
2018-10-12T02:53:25.940Z,14.00
2018-10-12T02:55:55.245Z,13.90
2018-10-12T02:58:24.563Z,14.00
2018-10-12T03:00:53.904Z,13.90
2018-10-12T03:03:23.184Z,13.80
2018-10-12T03:05:52.444Z,13.70
2018-10-12T03:08:21.664Z,13.70
2018-10-12T03:10:50.903Z,13.50
2018-10-12T03:13:20.144Z,13.60
2018-10-12T03:15:49.325Z,13.60
2018-10-12T03:18:18.564Z,13.60
2018-10-12T03:20:48.128Z,13.50
2018-10-12T03:23:17.244Z,13.50
2018-10-12T03:25:46.604Z,13.50
2018-10-12T03:28:24.393Z,13.40
2018-10-12T03:30:53.784Z,13.40
2018-10-12T03:33:23.264Z,13.40
2018-10-12T03:35:52.884Z,13.30
2018-10-12T03:38:22.338Z,13.40
2018-10-12T03:40:51.784Z,13.30
2018-10-12T03:43:21.203Z,13.20
2018-10-12T03:45:50.684Z,13.00
2018-10-12T03:48:20.024Z,13.00
2018-10-12T03:50:49.384Z,13.00
2018-10-12T03:53:18.871Z,13.10
2018-10-12T03:55:48.598Z,13.10
2018-10-12T03:58:17.884Z,13.20
2018-10-12T04:00:47.143Z,13.20
2018-10-12T04:03:16.424Z,13.10
2018-10-12T04:05:46.015Z,13.10
2018-10-12T04:08:15.325Z,13.10
2018-10-12T04:10:44.664Z,13.10
2018-10-12T04:13:13.985Z,13.20
2018-10-12T04:15:43.173Z,13.20
2018-10-12T04:18:12.504Z,13.20
2018-10-12T04:20:41.745Z,13.10
2018-10-12T04:23:11.104Z,13.10
2018-10-12T04:25:40.384Z,13.10
2018-10-12T04:28:09.684Z,13.10
2018-10-12T04:30:38.950Z,13.10
2018-10-12T04:33:08.378Z,13.10
2018-10-12T04:35:37.566Z,12.90
2018-10-12T04:38:06.985Z,12.90
2018-10-12T04:41:10.827Z,13.00
2018-10-12T04:43:40.324Z,13.00
2018-10-12T04:46:13.704Z,13.00
2018-10-12T04:48:44.765Z,13.00
2018-10-12T04:51:24.185Z,13.00
2018-10-12T04:53:53.687Z,13.00
2018-10-12T04:56:22.965Z,13.20
2018-10-12T04:58:52.304Z,13.30
2018-10-12T05:01:21.585Z,13.40
2018-10-12T05:03:50.945Z,13.40
2018-10-12T05:06:20.205Z,13.30
2018-10-12T05:08:49.484Z,13.40
2018-10-12T05:11:19.184Z,13.40
2018-10-12T05:13:48.605Z,13.40
2018-10-12T05:16:17.778Z,13.40
2018-10-12T05:18:47.065Z,13.60
2018-10-12T05:21:16.339Z,13.60
2018-10-12T05:23:45.592Z,13.60
2018-10-12T05:26:14.784Z,13.70
2018-10-12T05:28:44.185Z,13.70
2018-10-12T05:31:13.445Z,13.70
2018-10-12T05:33:42.730Z,13.80
2018-10-12T05:36:12.076Z,13.80
2018-10-12T05:38:41.465Z,13.90
2018-10-12T05:41:10.685Z,14.00
2018-10-12T05:43:40.105Z,14.10
2018-10-12T05:46:09.571Z,14.20
2018-10-12T05:48:55.641Z,14.30
2018-10-12T05:51:25.084Z,14.50
2018-10-12T05:53:54.605Z,14.50
2018-10-12T05:56:39.544Z,14.40
2018-10-12T05:59:09.627Z,14.40
2018-10-12T06:01:38.944Z,14.50
2018-10-12T06:04:14.924Z,14.80
2018-10-12T06:06:44.444Z,14.90
2018-10-12T06:09:13.684Z,15.10
2018-10-12T06:11:43.004Z,15.20
2018-10-12T06:14:12.273Z,15.50
2018-10-12T06:16:41.524Z,15.60
2018-10-12T06:19:11.050Z,15.80
2018-10-12T06:21:40.358Z,16.00
2018-10-12T06:24:16.804Z,16.20
2018-10-12T06:26:46.134Z,16.30
2018-10-12T06:29:15.424Z,16.40
2018-10-12T06:31:44.765Z,16.50
2018-10-12T06:34:13.984Z,16.70
2018-10-12T06:36:43.344Z,16.80
2018-10-12T06:39:13.166Z,16.80
2018-10-12T06:41:42.640Z,17.10
2018-10-12T06:44:11.664Z,17.40
2018-10-12T06:46:41.399Z,17.50
2018-10-12T06:49:10.544Z,17.70
2018-10-12T06:51:39.805Z,17.70
2018-10-12T06:54:09.724Z,17.60
2018-10-12T06:56:39.045Z,17.80
2018-10-12T06:59:08.791Z,17.80
2018-10-12T07:01:38.124Z,17.70
2018-10-12T07:04:07.924Z,18.00
2018-10-12T07:06:37.279Z,18.10
2018-10-12T07:09:10.680Z,18.30
2018-10-12T07:11:39.961Z,18.20
2018-10-12T07:14:09.665Z,18.20
2018-10-12T07:16:39.020Z,18.30
2018-10-12T07:19:08.301Z,18.20
2018-10-12T07:21:37.561Z,18.20
2018-10-12T07:24:07.141Z,18.20
2018-10-12T07:26:36.461Z,18.20
2018-10-12T07:29:06.193Z,18.20
2018-10-12T07:31:35.431Z,18.20
2018-10-12T07:34:04.701Z,18.20
2018-10-12T07:36:34.181Z,18.20
2018-10-12T07:39:05.221Z,18.30
2018-10-12T07:41:34.921Z,18.50
2018-10-12T07:44:04.141Z,18.70
2018-10-12T07:46:33.781Z,18.90
2018-10-12T07:49:03.001Z,19.00
2018-10-12T07:51:32.481Z,19.20
2018-10-12T07:54:02.586Z,19.20
2018-10-12T07:56:31.905Z,19.40
2018-10-12T07:59:01.745Z,19.50
2018-10-12T08:01:30.961Z,19.60
2018-10-12T08:04:00.221Z,19.90
2018-10-12T08:06:29.733Z,20.10
2018-10-12T08:08:59.061Z,20.30
2018-10-12T08:11:28.441Z,20.60
2018-10-12T08:13:57.756Z,20.90
2018-10-12T08:16:27.538Z,21.10
2018-10-12T08:18:57.045Z,21.10
2018-10-12T08:21:26.421Z,21.30
2018-10-12T08:23:56.021Z,21.30
2018-10-12T08:26:25.441Z,21.40
2018-10-12T08:28:54.783Z,21.70
2018-10-12T08:31:24.497Z,21.80
2018-10-12T08:33:53.881Z,21.90
2018-10-12T08:36:23.264Z,22.30
2018-10-12T08:38:52.562Z,22.10
2018-10-12T08:41:21.855Z,22.20
2018-10-12T08:43:51.144Z,22.60
2018-10-12T08:46:20.741Z,22.90
2018-10-12T08:48:50.099Z,23.10
2018-10-12T08:51:19.421Z,23.30
2018-10-12T08:53:48.789Z,23.60
2018-10-12T08:56:18.122Z,23.60
2018-10-12T08:58:47.383Z,23.70
2018-10-12T09:01:17.181Z,23.70
2018-10-12T09:03:46.562Z,23.90
2018-10-12T09:06:16.161Z,24.20
2018-10-12T09:08:45.704Z,24.40
2018-10-12T09:11:21.481Z,24.50
2018-10-12T09:13:50.874Z,24.80
2018-10-12T09:16:20.544Z,25.00
2018-10-12T09:18:49.882Z,25.00
2018-10-12T09:21:19.583Z,25.30
2018-10-12T09:23:48.822Z,25.20
2018-10-12T09:26:18.141Z,25.40
2018-10-12T09:28:47.462Z,25.70
2018-10-12T09:31:16.758Z,25.80
2018-10-12T09:33:46.045Z,25.70
2018-10-12T09:36:15.266Z,25.70
2018-10-12T09:38:44.852Z,25.40
2018-10-12T09:41:14.085Z,25.60
2018-10-12T09:43:43.405Z,25.70
2018-10-12T09:46:12.986Z,25.90
2018-10-12T09:48:42.225Z,26.00
2018-10-12T09:51:11.565Z,26.30
2018-10-12T09:53:40.888Z,26.40
2018-10-12T09:56:10.605Z,26.40
2018-10-12T09:58:39.885Z,26.30
2018-10-12T10:01:14.526Z,26.50
2018-10-12T10:03:49.226Z,26.60
2018-10-12T10:06:19.011Z,26.60
2018-10-12T10:08:48.404Z,26.60
2018-10-12T10:11:17.626Z,26.30
2018-10-12T10:13:46.904Z,26.00
2018-10-12T10:16:16.120Z,25.80
2018-10-12T10:18:45.385Z,25.70
2018-10-12T10:21:15.705Z,25.60
2018-10-12T10:23:45.165Z,25.40
2018-10-12T10:26:14.445Z,25.50
2018-10-12T10:28:43.727Z,25.60
2018-10-12T10:31:12.985Z,25.80
2018-10-12T10:33:42.205Z,25.90
2018-10-12T10:36:11.446Z,26.10
2018-10-12T10:38:40.705Z,26.20
2018-10-12T10:41:10.325Z,26.20
2018-10-12T10:43:39.526Z,26.20
2018-10-12T10:46:09.144Z,26.20
2018-10-12T10:48:38.686Z,26.40
2018-10-12T10:51:08.541Z,26.00
2018-10-12T10:53:37.838Z,26.30
2018-10-12T10:56:07.647Z,26.50
2018-10-12T10:58:37.125Z,26.80
2018-10-12T11:01:06.461Z,27.10
2018-10-12T11:03:35.780Z,26.80
2018-10-12T11:06:05.066Z,27.20
2018-10-12T11:08:34.725Z,27.00
2018-10-12T11:11:03.985Z,27.00
2018-10-12T11:13:33.249Z,27.10
2018-10-12T11:16:02.764Z,27.20
2018-10-12T11:18:32.224Z,27.40
2018-10-12T11:21:01.585Z,27.40
2018-10-12T11:23:31.765Z,27.70
2018-10-12T11:26:01.460Z,28.00
2018-10-12T11:28:30.656Z,28.20
2018-10-12T11:31:00.404Z,28.30
2018-10-12T11:33:29.973Z,28.40
2018-10-12T11:35:59.299Z,28.50
2018-10-12T11:38:28.581Z,28.60
2018-10-12T11:40:58.379Z,28.40
2018-10-12T11:43:33.090Z,28.50
2018-10-12T11:46:02.861Z,28.60
2018-10-12T11:48:32.118Z,28.40
2018-10-12T11:51:01.535Z,28.60
2018-10-12T11:53:30.815Z,28.50
2018-10-12T11:56:00.048Z,28.70
2018-10-12T11:58:29.355Z,28.40
2018-10-12T12:00:58.842Z,28.40
2018-10-12T12:03:28.201Z,28.70
2018-10-12T12:05:57.400Z,28.80
2018-10-12T12:08:26.897Z,28.90
2018-10-12T12:10:56.203Z,28.90
2018-10-12T12:13:25.471Z,29.10
2018-10-12T12:15:54.903Z,28.90
2018-10-12T12:18:24.744Z,29.20
2018-10-12T12:20:53.897Z,29.20
2018-10-12T12:23:23.214Z,29.50
2018-10-12T12:25:53.083Z,29.50
2018-10-12T12:28:22.341Z,29.50
2018-10-12T12:30:51.501Z,29.70
2018-10-12T12:33:21.099Z,29.60
2018-10-12T12:35:50.650Z,29.50
2018-10-12T12:38:19.539Z,29.40
2018-10-12T12:40:48.962Z,29.30
2018-10-12T12:43:18.200Z,29.40
2018-10-12T12:45:48.092Z,29.40
2018-10-12T12:48:17.456Z,29.10
2018-10-12T12:50:46.421Z,29.20
2018-10-12T12:53:16.411Z,29.20
2018-10-12T12:55:45.729Z,29.20
2018-10-12T12:58:14.997Z,29.30
2018-10-12T13:00:44.452Z,29.50
2018-10-12T13:03:13.659Z,29.50
2018-10-12T13:05:42.908Z,29.00
2018-10-12T13:08:12.439Z,29.10
2018-10-12T13:10:41.884Z,29.30
2018-10-12T13:13:11.539Z,29.50
2018-10-12T13:15:40.827Z,29.10
2018-10-12T13:18:10.046Z,29.20
2018-10-12T13:20:39.317Z,29.10
2018-10-12T13:23:08.562Z,29.10
2018-10-12T13:25:37.939Z,28.80
2018-10-12T13:28:07.922Z,29.10
2018-10-12T13:30:37.319Z,28.90
2018-10-12T13:33:06.594Z,29.10
2018-10-12T13:35:36.106Z,28.90
2018-10-12T13:38:05.733Z,29.00
2018-10-12T13:40:34.906Z,28.90
2018-10-12T13:43:04.323Z,28.90
2018-10-12T13:45:33.560Z,29.10
2018-10-12T13:48:02.768Z,28.90
2018-10-12T13:50:32.254Z,28.90
2018-10-12T13:53:01.627Z,29.20
2018-10-12T13:55:31.005Z,29.30
2018-10-12T13:58:00.552Z,29.30
2018-10-12T14:00:29.907Z,29.30
2018-10-12T14:02:59.306Z,29.30
2018-10-12T14:05:28.431Z,29.30
2018-10-12T14:07:57.683Z,29.20
2018-10-12T14:10:26.949Z,29.20
2018-10-12T14:12:56.541Z,29.20
2018-10-12T14:15:25.696Z,29.20
2018-10-12T14:17:54.992Z,29.10
2018-10-12T14:20:27.612Z,29.10
2018-10-12T14:22:57.317Z,29.10
2018-10-12T14:25:26.591Z,29.00
2018-10-12T14:27:55.883Z,29.00
2018-10-12T14:30:25.489Z,29.00
2018-10-12T14:32:54.689Z,29.10
2018-10-12T14:35:23.961Z,29.00
2018-10-12T14:37:53.231Z,29.00
2018-10-12T14:40:22.446Z,29.00
2018-10-12T14:42:52.084Z,29.10
2018-10-12T14:45:21.473Z,29.10
2018-10-12T14:47:50.824Z,29.10
2018-10-12T14:50:20.161Z,29.10
2018-10-12T14:52:49.485Z,29.00
2018-10-12T14:55:19.438Z,28.80
2018-10-12T14:57:48.772Z,28.80
2018-10-12T15:00:18.194Z,28.80
2018-10-12T15:02:48.284Z,28.60
2018-10-12T15:05:17.701Z,28.60
2018-10-12T15:07:47.005Z,28.60
2018-10-12T15:10:16.125Z,28.60
2018-10-12T15:12:45.365Z,28.50
2018-10-12T15:15:21.505Z,28.50
2018-10-12T15:17:51.866Z,28.30
2018-10-12T15:20:21.447Z,28.40
2018-10-12T15:22:51.045Z,28.20
2018-10-12T15:25:22.199Z,28.20
2018-10-12T15:27:51.615Z,28.10
2018-10-12T15:30:23.198Z,28.00
2018-10-12T15:32:52.491Z,27.90
2018-10-12T15:35:21.757Z,27.80
2018-10-12T15:37:51.558Z,27.70
2018-10-12T15:40:20.937Z,27.70
2018-10-12T15:42:50.304Z,27.60
2018-10-12T15:45:20.157Z,27.40
2018-10-12T15:47:49.821Z,27.40
2018-10-12T15:50:19.201Z,27.30
2018-10-12T15:52:48.946Z,27.20
2018-10-12T15:55:18.177Z,27.10
2018-10-12T15:57:47.482Z,27.00
2018-10-12T16:00:16.901Z,26.90
2018-10-12T16:02:46.176Z,26.80
2018-10-12T16:05:15.540Z,26.60
2018-10-12T16:07:44.917Z,26.50
2018-10-12T16:10:14.437Z,26.40
2018-10-12T16:12:44.021Z,26.20
2018-10-12T16:15:13.478Z,25.90
2018-10-12T16:17:46.643Z,25.90
2018-10-12T16:20:15.906Z,25.80
2018-10-12T16:22:45.185Z,25.70
2018-10-12T16:26:03.028Z,25.60
2018-10-12T16:28:32.396Z,25.60
2018-10-12T16:31:02.027Z,25.40
2018-10-12T16:33:31.701Z,25.30
2018-10-12T16:36:01.531Z,25.20
2018-10-12T16:38:33.333Z,25.10
2018-10-12T16:41:03.954Z,25.10
2018-10-12T16:43:33.313Z,25.00
2018-10-12T16:46:03.844Z,25.00
2018-10-12T16:48:35.121Z,24.90
2018-10-12T16:51:04.490Z,24.90
2018-10-12T16:53:33.870Z,24.80
2018-10-12T16:56:03.788Z,24.70
2018-10-12T16:58:33.111Z,24.70
2018-10-12T17:01:02.411Z,24.60
2018-10-12T17:03:31.817Z,24.40
2018-10-12T17:06:01.097Z,24.40
2018-10-12T17:08:30.334Z,24.40
2018-10-12T17:10:59.649Z,24.10
2018-10-12T17:13:29.041Z,24.10
2018-10-12T17:15:58.460Z,24.00
2018-10-12T17:18:28.514Z,23.50
2018-10-12T17:20:58.076Z,23.10
2018-10-12T17:23:27.257Z,22.70
2018-10-12T17:25:56.637Z,22.30
2018-10-12T17:28:25.987Z,22.00
2018-10-12T17:30:55.177Z,21.70
2018-10-12T17:34:27.604Z,21.50
2018-10-12T17:36:56.879Z,21.30
2018-10-12T17:39:26.239Z,21.10
2018-10-12T17:42:00.399Z,20.90
2018-10-12T17:44:29.719Z,20.80
2018-10-12T17:46:59.245Z,20.60
2018-10-12T17:49:28.701Z,20.50
2018-10-12T17:51:58.425Z,20.30
2018-10-12T17:54:27.771Z,20.20
2018-10-12T17:56:57.362Z,20.10
2018-10-12T17:59:26.592Z,20.00
2018-10-12T18:01:56.087Z,20.00
2018-10-12T18:04:25.627Z,19.90
2018-10-12T18:06:54.827Z,19.80
2018-10-12T18:09:24.642Z,19.70
2018-10-12T18:11:54.604Z,19.60
2018-10-12T18:14:24.311Z,19.60
2018-10-12T18:16:53.584Z,19.60
2018-10-12T18:19:23.243Z,19.50
2018-10-12T18:21:52.580Z,19.40
2018-10-12T18:24:21.883Z,19.30
2018-10-12T18:26:51.183Z,19.30
2018-10-12T18:29:20.478Z,19.10
2018-10-12T18:31:49.863Z,19.10
2018-10-12T18:34:19.308Z,19.00
2018-10-12T18:36:48.710Z,18.90
2018-10-12T18:39:18.064Z,18.80
2018-10-12T18:41:47.903Z,18.70
2018-10-12T18:44:17.442Z,18.70
2018-10-12T18:46:47.003Z,18.60
2018-10-12T18:49:16.583Z,18.50
2018-10-12T18:51:45.885Z,18.40
2018-10-12T18:54:15.329Z,18.40
2018-10-12T18:56:44.624Z,18.30
2018-10-12T18:59:14.004Z,18.20
2018-10-12T19:01:43.322Z,18.20
2018-10-12T19:04:12.765Z,18.20
2018-10-12T19:06:42.093Z,18.10
2018-10-12T19:09:11.538Z,18.00
2018-10-12T19:11:43.957Z,18.00
2018-10-12T19:14:13.198Z,18.00
2018-10-12T19:16:42.545Z,18.00
2018-10-12T19:19:11.870Z,18.00
2018-10-12T19:21:41.203Z,18.00
2018-10-12T19:24:10.566Z,18.10
2018-10-12T19:26:39.889Z,18.30
2018-10-12T19:29:09.518Z,18.00
2018-10-12T19:31:38.894Z,18.00
2018-10-12T19:34:08.383Z,17.90
2018-10-12T19:36:37.617Z,17.80
2018-10-12T19:39:09.418Z,17.70
2018-10-12T19:41:38.698Z,17.60
2018-10-12T19:44:08.859Z,17.60
2018-10-12T19:46:38.181Z,17.50
2018-10-12T19:49:07.578Z,17.40
2018-10-12T19:51:36.837Z,17.40
2018-10-12T19:54:06.219Z,17.50
2018-10-12T19:56:35.558Z,17.40
2018-10-12T19:59:04.862Z,17.50
2018-10-12T20:01:34.083Z,17.60
2018-10-12T20:04:03.298Z,17.80
2018-10-12T20:06:32.569Z,18.20
2018-10-12T20:09:03.058Z,17.80
2018-10-12T20:11:32.317Z,17.70
2018-10-12T20:14:01.978Z,17.60
2018-10-12T20:16:31.218Z,17.60
2018-10-12T20:19:00.441Z,17.50
2018-10-12T20:21:29.777Z,17.40
2018-10-12T20:23:59.109Z,17.40
2018-10-12T20:26:28.498Z,17.40
2018-10-12T20:28:59.019Z,17.30
2018-10-12T20:31:28.560Z,17.30
2018-10-12T20:33:57.818Z,17.20
2018-10-12T20:36:27.626Z,17.20
2018-10-12T20:38:56.878Z,17.30
2018-10-12T20:41:26.158Z,17.40
2018-10-12T20:43:55.438Z,17.50
2018-10-12T20:46:24.710Z,17.50
2018-10-12T20:48:53.997Z,17.50
2018-10-12T20:51:23.538Z,17.50
2018-10-12T20:53:52.742Z,17.50
2018-10-12T20:56:21.958Z,17.50
2018-10-12T20:58:51.797Z,17.50
2018-10-12T21:01:21.098Z,17.50
2018-10-12T21:03:50.647Z,17.70
2018-10-12T21:06:20.036Z,17.90
2018-10-12T21:08:49.352Z,18.20
2018-10-12T21:11:18.668Z,18.30
2018-10-12T21:13:48.149Z,18.20
2018-10-12T21:16:17.429Z,18.00
2018-10-12T21:18:46.728Z,18.20
2018-10-12T21:21:16.802Z,18.00
2018-10-12T21:23:46.327Z,17.90
2018-10-12T21:26:15.851Z,17.80
2018-10-12T21:28:45.069Z,17.70
2018-10-12T21:31:14.309Z,17.60
2018-10-12T21:33:43.829Z,17.60
2018-10-12T21:36:13.748Z,17.60
2018-10-12T21:38:43.077Z,17.50
2018-10-12T21:41:12.332Z,17.50
2018-10-12T21:43:41.674Z,17.60
2018-10-12T21:46:11.142Z,17.50
2018-10-12T21:48:40.492Z,17.50
2018-10-12T21:51:09.832Z,17.40
2018-10-12T21:53:39.213Z,17.40
2018-10-12T21:56:08.871Z,17.40
2018-10-12T21:58:38.153Z,17.30
2018-10-12T22:01:07.592Z,17.30
2018-10-12T22:03:37.313Z,17.20
2018-10-12T22:06:06.788Z,17.30
2018-10-12T22:08:41.591Z,17.30
2018-10-12T22:11:10.895Z,17.20
2018-10-12T22:13:40.235Z,17.30
2018-10-12T22:16:09.777Z,17.20
2018-10-12T22:18:39.152Z,17.20
2018-10-12T22:21:08.573Z,17.10
2018-10-12T22:23:37.953Z,17.20
2018-10-12T22:26:07.617Z,17.10
2018-10-12T22:28:36.979Z,17.10
2018-10-12T22:31:06.512Z,17.10
2018-10-12T22:33:35.751Z,17.10
2018-10-12T22:36:04.811Z,17.10
2018-10-12T22:38:34.214Z,17.00
2018-10-12T22:41:03.460Z,17.00
2018-10-12T22:43:32.720Z,16.90
2018-10-12T22:46:02.049Z,16.90
2018-10-12T22:48:31.719Z,16.90
2018-10-12T22:51:01.320Z,16.80
2018-10-12T22:53:30.700Z,16.80
2018-10-12T22:55:59.961Z,16.80
2018-10-12T22:58:29.279Z,16.90
2018-10-12T23:00:58.980Z,16.80
2018-10-12T23:03:28.199Z,16.80
2018-10-12T23:05:57.960Z,16.80
2018-10-12T23:08:27.220Z,16.80
2018-10-12T23:10:56.557Z,16.90
2018-10-12T23:13:25.900Z,16.90
2018-10-12T23:15:55.219Z,16.80
2018-10-12T23:18:24.539Z,16.90
2018-10-12T23:20:53.860Z,17.30
2018-10-12T23:23:23.120Z,17.30
2018-10-12T23:25:52.339Z,17.40
2018-10-12T23:28:21.739Z,17.50
2018-10-12T23:30:50.937Z,17.60
2018-10-12T23:33:36.619Z,17.50
2018-10-12T23:36:06.320Z,17.40
2018-10-12T23:38:35.579Z,17.30
2018-10-12T23:41:04.859Z,17.20
2018-10-12T23:43:34.259Z,17.10
2018-10-12T23:46:03.573Z,17.10
2018-10-12T23:48:32.788Z,17.00
2018-10-12T23:51:02.499Z,16.90
2018-10-12T23:53:31.758Z,16.90
2018-10-12T23:56:01.245Z,16.80
2018-10-12T23:58:30.460Z,16.70
